sensor_id;sensor_type;location;lat;lon;timestamp;temperature;humidity
11894;DHT22;6006;49.696;8.662;2023-06-04T00:02:04;15.70;99.90
11894;DHT22;6006;49.696;8.662;2023-06-04T00:04:31;15.70;99.90
11894;DHT22;6006;49.696;8.662;2023-06-04T00:07:00;15.70;99.90
11894;DHT22;6006;49.696;8.662;2023-06-04T00:09:26;15.70;99.90
11894;DHT22;6006;49.696;8.662;2023-06-04T00:11:54;15.70;99.90
11894;DHT22;6006;49.696;8.662;2023-06-04T00:14:21;15.70;99.90
11894;DHT22;6006;49.696;8.662;2023-06-04T00:16:48;15.70;99.90
11894;DHT22;6006;49.696;8.662;2023-06-04T00:19:15;15.70;99.90
11894;DHT22;6006;49.696;8.662;2023-06-04T00:21:42;15.70;99.90
11894;DHT22;6006;49.696;8.662;2023-06-04T00:24:10;15.60;99.90
11894;DHT22;6006;49.696;8.662;2023-06-04T00:26:38;15.60;99.90
11894;DHT22;6006;49.696;8.662;2023-06-04T00:29:05;15.50;99.90
11894;DHT22;6006;49.696;8.662;2023-06-04T00:31:31;15.50;99.90
11894;DHT22;6006;49.696;8.662;2023-06-04T00:33:58;15.50;99.90
11894;DHT22;6006;49.696;8.662;2023-06-04T00:36:25;15.50;99.90
11894;DHT22;6006;49.696;8.662;2023-06-04T00:38:52;15.40;99.90
11894;DHT22;6006;49.696;8.662;2023-06-04T00:41:20;15.40;99.90
11894;DHT22;6006;49.696;8.662;2023-06-04T00:43:47;15.40;99.90
11894;DHT22;6006;49.696;8.662;2023-06-04T00:46:21;15.40;99.90
11894;DHT22;6006;49.696;8.662;2023-06-04T00:48:48;15.30;99.90
11894;DHT22;6006;49.696;8.662;2023-06-04T00:51:16;15.20;99.90
11894;DHT22;6006;49.696;8.662;2023-06-04T00:53:43;15.20;99.90
11894;DHT22;6006;49.696;8.662;2023-06-04T00:56:10;15.10;99.90
11894;DHT22;6006;49.696;8.662;2023-06-04T00:58:39;15.10;99.90
11894;DHT22;6006;49.696;8.662;2023-06-04T01:01:10;15.10;99.90
11894;DHT22;6006;49.696;8.662;2023-06-04T01:03:42;15.00;99.90
11894;DHT22;6006;49.696;8.662;2023-06-04T01:06:16;15.10;99.90
11894;DHT22;6006;49.696;8.662;2023-06-04T01:08:48;15.00;99.90
11894;DHT22;6006;49.696;8.662;2023-06-04T01:11:16;14.90;99.90
11894;DHT22;6006;49.696;8.662;2023-06-04T01:13:45;14.90;99.90
11894;DHT22;6006;49.696;8.662;2023-06-04T01:16:14;14.90;99.90
11894;DHT22;6006;49.696;8.662;2023-06-04T01:18:42;14.90;99.90
11894;DHT22;6006;49.696;8.662;2023-06-04T01:21:11;14.90;99.90
11894;DHT22;6006;49.696;8.662;2023-06-04T01:23:46;14.80;99.90
11894;DHT22;6006;49.696;8.662;2023-06-04T01:26:15;14.80;99.90
11894;DHT22;6006;49.696;8.662;2023-06-04T01:28:42;14.80;99.90
11894;DHT22;6006;49.696;8.662;2023-06-04T01:31:11;14.90;99.90
11894;DHT22;6006;49.696;8.662;2023-06-04T01:33:39;14.90;99.90
11894;DHT22;6006;49.696;8.662;2023-06-04T01:36:07;14.90;99.90
11894;DHT22;6006;49.696;8.662;2023-06-04T01:38:36;14.90;99.90
11894;DHT22;6006;49.696;8.662;2023-06-04T01:41:03;14.90;99.90
11894;DHT22;6006;49.696;8.662;2023-06-04T01:43:30;14.90;99.90
11894;DHT22;6006;49.696;8.662;2023-06-04T01:46:00;14.90;99.90
11894;DHT22;6006;49.696;8.662;2023-06-04T01:48:28;14.90;99.90
11894;DHT22;6006;49.696;8.662;2023-06-04T01:50:57;14.90;99.90
11894;DHT22;6006;49.696;8.662;2023-06-04T01:53:24;14.80;99.90
11894;DHT22;6006;49.696;8.662;2023-06-04T01:55:51;14.80;99.90
11894;DHT22;6006;49.696;8.662;2023-06-04T01:58:18;14.80;99.90
11894;DHT22;6006;49.696;8.662;2023-06-04T02:00:48;14.80;99.90
11894;DHT22;6006;49.696;8.662;2023-06-04T02:03:15;14.80;99.90
11894;DHT22;6006;49.696;8.662;2023-06-04T02:05:44;14.80;99.90
11894;DHT22;6006;49.696;8.662;2023-06-04T02:08:14;14.80;99.90
11894;DHT22;6006;49.696;8.662;2023-06-04T02:10:46;14.70;99.90
11894;DHT22;6006;49.696;8.662;2023-06-04T02:13:13;14.80;99.90
11894;DHT22;6006;49.696;8.662;2023-06-04T02:15:40;14.70;99.90
11894;DHT22;6006;49.696;8.662;2023-06-04T02:18:15;14.70;99.90
11894;DHT22;6006;49.696;8.662;2023-06-04T02:20:44;14.70;99.90
11894;DHT22;6006;49.696;8.662;2023-06-04T02:23:12;14.60;99.90
11894;DHT22;6006;49.696;8.662;2023-06-04T02:25:39;14.60;99.90
11894;DHT22;6006;49.696;8.662;2023-06-04T02:28:06;14.50;99.90
11894;DHT22;6006;49.696;8.662;2023-06-04T02:30:33;14.50;99.90
11894;DHT22;6006;49.696;8.662;2023-06-04T02:33:00;14.50;99.90
11894;DHT22;6006;49.696;8.662;2023-06-04T02:35:27;14.50;99.90
11894;DHT22;6006;49.696;8.662;2023-06-04T02:37:56;14.50;99.90
11894;DHT22;6006;49.696;8.662;2023-06-04T02:40:23;14.40;99.90
11894;DHT22;6006;49.696;8.662;2023-06-04T02:42:51;14.40;99.90
11894;DHT22;6006;49.696;8.662;2023-06-04T02:45:18;14.40;99.90
11894;DHT22;6006;49.696;8.662;2023-06-04T02:47:45;14.40;99.90
11894;DHT22;6006;49.696;8.662;2023-06-04T02:50:13;14.40;99.90
11894;DHT22;6006;49.696;8.662;2023-06-04T02:52:41;14.40;99.90
11894;DHT22;6006;49.696;8.662;2023-06-04T02:55:10;14.40;99.90
11894;DHT22;6006;49.696;8.662;2023-06-04T02:57:39;14.30;99.90
11894;DHT22;6006;49.696;8.662;2023-06-04T03:00:08;14.40;99.90
11894;DHT22;6006;49.696;8.662;2023-06-04T03:02:40;14.30;99.90
11894;DHT22;6006;49.696;8.662;2023-06-04T03:05:08;14.30;99.90
11894;DHT22;6006;49.696;8.662;2023-06-04T03:07:36;14.20;99.90
11894;DHT22;6006;49.696;8.662;2023-06-04T03:10:03;14.20;99.90
11894;DHT22;6006;49.696;8.662;2023-06-04T03:12:32;14.30;99.90
11894;DHT22;6006;49.696;8.662;2023-06-04T03:14:59;14.30;99.90
11894;DHT22;6006;49.696;8.662;2023-06-04T03:17:26;14.30;99.90
11894;DHT22;6006;49.696;8.662;2023-06-04T03:19:53;14.30;99.90
11894;DHT22;6006;49.696;8.662;2023-06-04T03:22:21;14.30;99.90
11894;DHT22;6006;49.696;8.662;2023-06-04T03:24:48;14.30;99.90
11894;DHT22;6006;49.696;8.662;2023-06-04T03:27:15;14.30;99.90
11894;DHT22;6006;49.696;8.662;2023-06-04T03:29:43;14.20;99.90
11894;DHT22;6006;49.696;8.662;2023-06-04T03:32:11;14.20;99.90
11894;DHT22;6006;49.696;8.662;2023-06-04T03:34:38;14.20;99.90
11894;DHT22;6006;49.696;8.662;2023-06-04T03:37:06;14.10;99.90
11894;DHT22;6006;49.696;8.662;2023-06-04T03:39:33;14.20;99.90
11894;DHT22;6006;49.696;8.662;2023-06-04T03:41:59;14.10;99.90
11894;DHT22;6006;49.696;8.662;2023-06-04T03:44:26;14.10;99.90
11894;DHT22;6006;49.696;8.662;2023-06-04T03:46:55;14.10;99.90
11894;DHT22;6006;49.696;8.662;2023-06-04T03:49:22;14.00;99.90
11894;DHT22;6006;49.696;8.662;2023-06-04T03:51:48;14.00;99.90
11894;DHT22;6006;49.696;8.662;2023-06-04T03:54:15;14.00;99.90
11894;DHT22;6006;49.696;8.662;2023-06-04T03:56:44;14.00;99.90
11894;DHT22;6006;49.696;8.662;2023-06-04T03:59:11;14.00;99.90
11894;DHT22;6006;49.696;8.662;2023-06-04T04:01:38;13.90;99.90
11894;DHT22;6006;49.696;8.662;2023-06-04T04:04:06;13.90;99.90
11894;DHT22;6006;49.696;8.662;2023-06-04T04:06:33;13.80;99.90
11894;DHT22;6006;49.696;8.662;2023-06-04T04:09:01;13.80;99.90
11894;DHT22;6006;49.696;8.662;2023-06-04T04:11:28;13.70;99.90
11894;DHT22;6006;49.696;8.662;2023-06-04T04:13:56;13.60;99.90
11894;DHT22;6006;49.696;8.662;2023-06-04T04:16:23;13.60;99.90
11894;DHT22;6006;49.696;8.662;2023-06-04T04:18:50;13.60;99.90
11894;DHT22;6006;49.696;8.662;2023-06-04T04:21:18;13.60;99.90
11894;DHT22;6006;49.696;8.662;2023-06-04T04:23:46;13.50;99.90
11894;DHT22;6006;49.696;8.662;2023-06-04T04:26:13;13.60;99.90
11894;DHT22;6006;49.696;8.662;2023-06-04T04:28:42;13.60;99.90
11894;DHT22;6006;49.696;8.662;2023-06-04T04:31:09;13.60;99.90
11894;DHT22;6006;49.696;8.662;2023-06-04T04:33:36;13.70;99.90
11894;DHT22;6006;49.696;8.662;2023-06-04T04:36:05;13.80;99.90
11894;DHT22;6006;49.696;8.662;2023-06-04T04:38:36;13.90;99.90
11894;DHT22;6006;49.696;8.662;2023-06-04T04:41:03;13.90;99.90
11894;DHT22;6006;49.696;8.662;2023-06-04T04:43:31;14.00;99.90
11894;DHT22;6006;49.696;8.662;2023-06-04T04:45:58;14.10;99.90
11894;DHT22;6006;49.696;8.662;2023-06-04T04:48:25;14.30;99.90
11894;DHT22;6006;49.696;8.662;2023-06-04T04:50:52;14.40;99.90
11894;DHT22;6006;49.696;8.662;2023-06-04T04:53:19;14.40;99.90
11894;DHT22;6006;49.696;8.662;2023-06-04T04:55:47;14.50;99.90
11894;DHT22;6006;49.696;8.662;2023-06-04T04:58:14;14.60;99.90
11894;DHT22;6006;49.696;8.662;2023-06-04T05:00:42;14.70;99.90
11894;DHT22;6006;49.696;8.662;2023-06-04T05:03:09;14.90;99.90
11894;DHT22;6006;49.696;8.662;2023-06-04T05:05:35;14.90;99.90
11894;DHT22;6006;49.696;8.662;2023-06-04T05:08:03;15.00;99.90
11894;DHT22;6006;49.696;8.662;2023-06-04T05:10:30;15.10;99.90
11894;DHT22;6006;49.696;8.662;2023-06-04T05:12:59;15.20;99.90
11894;DHT22;6006;49.696;8.662;2023-06-04T05:15:27;15.30;99.90
11894;DHT22;6006;49.696;8.662;2023-06-04T05:17:55;15.40;99.90
11894;DHT22;6006;49.696;8.662;2023-06-04T05:20:22;15.50;99.90
11894;DHT22;6006;49.696;8.662;2023-06-04T05:22:49;15.50;99.90
11894;DHT22;6006;49.696;8.662;2023-06-04T05:25:17;15.60;99.90
11894;DHT22;6006;49.696;8.662;2023-06-04T05:27:44;15.70;99.90
11894;DHT22;6006;49.696;8.662;2023-06-04T05:30:13;15.70;99.90
11894;DHT22;6006;49.696;8.662;2023-06-04T05:32:40;15.80;99.90
11894;DHT22;6006;49.696;8.662;2023-06-04T05:35:08;15.90;99.90
11894;DHT22;6006;49.696;8.662;2023-06-04T05:37:37;15.90;99.90
11894;DHT22;6006;49.696;8.662;2023-06-04T05:40:07;16.10;99.90
11894;DHT22;6006;49.696;8.662;2023-06-04T05:42:34;16.20;99.90
11894;DHT22;6006;49.696;8.662;2023-06-04T05:45:01;16.40;99.90
11894;DHT22;6006;49.696;8.662;2023-06-04T05:47:30;16.60;99.90
11894;DHT22;6006;49.696;8.662;2023-06-04T05:49:57;16.90;99.90
11894;DHT22;6006;49.696;8.662;2023-06-04T05:52:24;17.30;99.90
11894;DHT22;6006;49.696;8.662;2023-06-04T05:54:52;17.50;99.90
11894;DHT22;6006;49.696;8.662;2023-06-04T05:57:20;17.70;99.90
11894;DHT22;6006;49.696;8.662;2023-06-04T05:59:47;17.90;99.90
11894;DHT22;6006;49.696;8.662;2023-06-04T06:02:14;18.00;99.90
11894;DHT22;6006;49.696;8.662;2023-06-04T06:04:43;18.10;99.90
11894;DHT22;6006;49.696;8.662;2023-06-04T06:07:10;18.20;99.90
11894;DHT22;6006;49.696;8.662;2023-06-04T06:09:37;18.50;99.90
11894;DHT22;6006;49.696;8.662;2023-06-04T06:12:04;18.60;99.90
11894;DHT22;6006;49.696;8.662;2023-06-04T06:14:31;18.60;99.90
11894;DHT22;6006;49.696;8.662;2023-06-04T06:16:58;18.80;99.90
11894;DHT22;6006;49.696;8.662;2023-06-04T06:19:25;18.80;99.90
11894;DHT22;6006;49.696;8.662;2023-06-04T06:21:54;19.00;99.90
11894;DHT22;6006;49.696;8.662;2023-06-04T06:24:21;19.40;99.90
11894;DHT22;6006;49.696;8.662;2023-06-04T06:26:48;19.70;99.90
11894;DHT22;6006;49.696;8.662;2023-06-04T06:29:15;19.80;99.90
11894;DHT22;6006;49.696;8.662;2023-06-04T06:31:42;20.10;99.90
11894;DHT22;6006;49.696;8.662;2023-06-04T06:34:08;20.10;99.90
11894;DHT22;6006;49.696;8.662;2023-06-04T06:36:35;20.20;99.90
11894;DHT22;6006;49.696;8.662;2023-06-04T06:39:03;20.10;99.90
11894;DHT22;6006;49.696;8.662;2023-06-04T06:41:31;20.00;99.90
11894;DHT22;6006;49.696;8.662;2023-06-04T06:43:57;20.00;99.90
11894;DHT22;6006;49.696;8.662;2023-06-04T06:46:24;20.30;99.90
11894;DHT22;6006;49.696;8.662;2023-06-04T06:48:51;20.60;99.90
11894;DHT22;6006;49.696;8.662;2023-06-04T06:51:18;20.90;99.90
11894;DHT22;6006;49.696;8.662;2023-06-04T06:53:45;21.40;99.90
11894;DHT22;6006;49.696;8.662;2023-06-04T06:56:14;21.60;99.90
11894;DHT22;6006;49.696;8.662;2023-06-04T06:58:41;22.00;99.90
11894;DHT22;6006;49.696;8.662;2023-06-04T07:01:08;22.50;99.90
11894;DHT22;6006;49.696;8.662;2023-06-04T07:03:35;22.90;99.90
11894;DHT22;6006;49.696;8.662;2023-06-04T07:06:03;22.20;99.90
11894;DHT22;6006;49.696;8.662;2023-06-04T07:08:30;22.90;99.90
11894;DHT22;6006;49.696;8.662;2023-06-04T07:10:57;23.40;99.90
11894;DHT22;6006;49.696;8.662;2023-06-04T07:13:26;23.80;99.90
11894;DHT22;6006;49.696;8.662;2023-06-04T07:15:53;23.60;99.90
11894;DHT22;6006;49.696;8.662;2023-06-04T07:18:20;23.60;99.90
11894;DHT22;6006;49.696;8.662;2023-06-04T07:20:47;23.10;99.90
11894;DHT22;6006;49.696;8.662;2023-06-04T07:23:15;22.70;99.90
11894;DHT22;6006;49.696;8.662;2023-06-04T07:25:42;22.60;99.90
11894;DHT22;6006;49.696;8.662;2023-06-04T07:28:08;23.10;99.90
11894;DHT22;6006;49.696;8.662;2023-06-04T07:30:37;23.40;99.90
11894;DHT22;6006;49.696;8.662;2023-06-04T07:33:04;23.20;99.90
11894;DHT22;6006;49.696;8.662;2023-06-04T07:35:31;23.80;99.90
11894;DHT22;6006;49.696;8.662;2023-06-04T07:37:58;24.50;99.90
11894;DHT22;6006;49.696;8.662;2023-06-04T07:40:25;24.80;99.90
11894;DHT22;6006;49.696;8.662;2023-06-04T07:42:52;25.00;99.90
11894;DHT22;6006;49.696;8.662;2023-06-04T07:45:19;24.80;99.90
11894;DHT22;6006;49.696;8.662;2023-06-04T07:47:47;24.60;99.90
11894;DHT22;6006;49.696;8.662;2023-06-04T07:50:14;24.20;99.90
11894;DHT22;6006;49.696;8.662;2023-06-04T07:52:41;23.40;99.90
11894;DHT22;6006;49.696;8.662;2023-06-04T07:55:08;23.10;99.90
11894;DHT22;6006;49.696;8.662;2023-06-04T07:57:35;23.40;99.90
11894;DHT22;6006;49.696;8.662;2023-06-04T08:00:03;23.50;99.90
11894;DHT22;6006;49.696;8.662;2023-06-04T08:02:31;23.70;99.90
11894;DHT22;6006;49.696;8.662;2023-06-04T08:04:59;24.10;99.90
11894;DHT22;6006;49.696;8.662;2023-06-04T08:07:29;23.90;99.90
11894;DHT22;6006;49.696;8.662;2023-06-04T08:09:56;24.20;99.90
11894;DHT22;6006;49.696;8.662;2023-06-04T08:12:23;23.90;99.90
11894;DHT22;6006;49.696;8.662;2023-06-04T08:14:50;23.90;99.90
11894;DHT22;6006;49.696;8.662;2023-06-04T08:17:17;24.20;99.90
11894;DHT22;6006;49.696;8.662;2023-06-04T08:19:44;24.20;99.90
11894;DHT22;6006;49.696;8.662;2023-06-04T08:22:12;24.50;99.90
11894;DHT22;6006;49.696;8.662;2023-06-04T08:24:39;24.50;99.90
11894;DHT22;6006;49.696;8.662;2023-06-04T08:27:06;24.50;99.90
11894;DHT22;6006;49.696;8.662;2023-06-04T08:29:34;24.70;99.90
11894;DHT22;6006;49.696;8.662;2023-06-04T08:32:01;24.50;99.90
11894;DHT22;6006;49.696;8.662;2023-06-04T08:34:28;24.20;99.90
11894;DHT22;6006;49.696;8.662;2023-06-04T08:36:55;24.30;99.90
11894;DHT22;6006;49.696;8.662;2023-06-04T08:39:23;24.10;99.90
11894;DHT22;6006;49.696;8.662;2023-06-04T08:41:52;23.80;99.90
11894;DHT22;6006;49.696;8.662;2023-06-04T08:44:19;23.80;99.90
11894;DHT22;6006;49.696;8.662;2023-06-04T08:46:49;23.60;99.90
11894;DHT22;6006;49.696;8.662;2023-06-04T08:49:19;23.60;99.90
11894;DHT22;6006;49.696;8.662;2023-06-04T08:51:47;23.20;99.90
11894;DHT22;6006;49.696;8.662;2023-06-04T08:54:14;23.10;99.90
11894;DHT22;6006;49.696;8.662;2023-06-04T08:56:43;23.40;99.90
11894;DHT22;6006;49.696;8.662;2023-06-04T08:59:11;23.90;99.90
11894;DHT22;6006;49.696;8.662;2023-06-04T09:01:39;24.20;99.90
11894;DHT22;6006;49.696;8.662;2023-06-04T09:04:10;24.30;99.90
11894;DHT22;6006;49.696;8.662;2023-06-04T09:06:39;24.60;99.90
11894;DHT22;6006;49.696;8.662;2023-06-04T09:09:09;24.50;99.90
11894;DHT22;6006;49.696;8.662;2023-06-04T09:11:42;24.30;99.90
11894;DHT22;6006;49.696;8.662;2023-06-04T09:14:14;24.30;99.90
11894;DHT22;6006;49.696;8.662;2023-06-04T09:16:43;24.70;99.90
11894;DHT22;6006;49.696;8.662;2023-06-04T09:19:10;25.50;99.90
11894;DHT22;6006;49.696;8.662;2023-06-04T09:21:49;25.90;99.90
11894;DHT22;6006;49.696;8.662;2023-06-04T09:24:16;25.80;99.90
11894;DHT22;6006;49.696;8.662;2023-06-04T09:26:43;25.70;99.90
11894;DHT22;6006;49.696;8.662;2023-06-04T09:29:10;25.60;99.90
11894;DHT22;6006;49.696;8.662;2023-06-04T09:31:38;25.40;99.90
11894;DHT22;6006;49.696;8.662;2023-06-04T09:34:06;25.40;99.90
11894;DHT22;6006;49.696;8.662;2023-06-04T09:36:33;25.20;99.90
11894;DHT22;6006;49.696;8.662;2023-06-04T09:39:02;25.90;99.90
11894;DHT22;6006;49.696;8.662;2023-06-04T09:41:29;26.60;99.90
11894;DHT22;6006;49.696;8.662;2023-06-04T09:44:00;26.90;99.90
11894;DHT22;6006;49.696;8.662;2023-06-04T09:46:28;27.10;99.90
11894;DHT22;6006;49.696;8.662;2023-06-04T09:49:01;26.80;99.90
11894;DHT22;6006;49.696;8.662;2023-06-04T09:51:29;26.00;99.90
11894;DHT22;6006;49.696;8.662;2023-06-04T09:53:57;25.80;99.90
11894;DHT22;6006;49.696;8.662;2023-06-04T09:56:25;26.10;99.90
11894;DHT22;6006;49.696;8.662;2023-06-04T09:58:54;26.00;99.90
11894;DHT22;6006;49.696;8.662;2023-06-04T10:01:23;26.30;99.90
11894;DHT22;6006;49.696;8.662;2023-06-04T10:03:53;26.50;99.90
11894;DHT22;6006;49.696;8.662;2023-06-04T10:06:23;27.30;99.90
11894;DHT22;6006;49.696;8.662;2023-06-04T10:08:50;27.70;99.90
11894;DHT22;6006;49.696;8.662;2023-06-04T10:11:22;27.90;99.90
11894;DHT22;6006;49.696;8.662;2023-06-04T10:13:53;28.30;99.90
11894;DHT22;6006;49.696;8.662;2023-06-04T10:16:21;28.50;99.90
11894;DHT22;6006;49.696;8.662;2023-06-04T10:18:52;28.50;99.90
11894;DHT22;6006;49.696;8.662;2023-06-04T10:21:23;28.50;99.90
11894;DHT22;6006;49.696;8.662;2023-06-04T10:23:50;29.00;99.90
11894;DHT22;6006;49.696;8.662;2023-06-04T10:26:17;29.10;99.90
11894;DHT22;6006;49.696;8.662;2023-06-04T10:28:44;28.60;99.90
11894;DHT22;6006;49.696;8.662;2023-06-04T10:31:12;28.20;99.90
11894;DHT22;6006;49.696;8.662;2023-06-04T10:33:39;28.30;99.90
11894;DHT22;6006;49.696;8.662;2023-06-04T10:36:16;28.10;99.90
11894;DHT22;6006;49.696;8.662;2023-06-04T10:38:49;28.20;99.90
11894;DHT22;6006;49.696;8.662;2023-06-04T10:41:17;28.60;99.90
11894;DHT22;6006;49.696;8.662;2023-06-04T10:43:45;29.20;99.90
11894;DHT22;6006;49.696;8.662;2023-06-04T10:46:16;28.90;99.90
11894;DHT22;6006;49.696;8.662;2023-06-04T10:48:50;29.50;99.90
11894;DHT22;6006;49.696;8.662;2023-06-04T10:51:29;29.00;99.90
11894;DHT22;6006;49.696;8.662;2023-06-04T10:54:00;28.20;99.90
11894;DHT22;6006;49.696;8.662;2023-06-04T10:56:28;27.80;99.90
11894;DHT22;6006;49.696;8.662;2023-06-04T10:58:58;28.20;99.90
11894;DHT22;6006;49.696;8.662;2023-06-04T11:01:25;28.10;99.90
11894;DHT22;6006;49.696;8.662;2023-06-04T11:03:52;28.40;99.90
11894;DHT22;6006;49.696;8.662;2023-06-04T11:06:19;28.80;99.90
11894;DHT22;6006;49.696;8.662;2023-06-04T11:08:47;29.20;99.90
11894;DHT22;6006;49.696;8.662;2023-06-04T11:11:16;28.70;99.90
11894;DHT22;6006;49.696;8.662;2023-06-04T11:13:43;28.20;99.90
11894;DHT22;6006;49.696;8.662;2023-06-04T11:16:16;28.10;99.90
11894;DHT22;6006;49.696;8.662;2023-06-04T11:18:54;28.10;99.90
11894;DHT22;6006;49.696;8.662;2023-06-04T11:21:21;27.90;99.90
11894;DHT22;6006;49.696;8.662;2023-06-04T11:23:49;28.00;99.90
11894;DHT22;6006;49.696;8.662;2023-06-04T11:26:17;28.20;99.90
11894;DHT22;6006;49.696;8.662;2023-06-04T11:28:48;27.80;99.90
11894;DHT22;6006;49.696;8.662;2023-06-04T11:31:15;27.40;99.90
11894;DHT22;6006;49.696;8.662;2023-06-04T11:33:43;26.80;99.90
11894;DHT22;6006;49.696;8.662;2023-06-04T11:36:10;26.20;99.90
11894;DHT22;6006;49.696;8.662;2023-06-04T11:38:40;25.90;99.90
11894;DHT22;6006;49.696;8.662;2023-06-04T11:41:07;25.70;99.90
11894;DHT22;6006;49.696;8.662;2023-06-04T11:43:35;25.50;99.90
11894;DHT22;6006;49.696;8.662;2023-06-04T11:46:08;25.90;99.90
11894;DHT22;6006;49.696;8.662;2023-06-04T11:48:35;26.40;99.90
11894;DHT22;6006;49.696;8.662;2023-06-04T11:51:07;26.90;99.90
11894;DHT22;6006;49.696;8.662;2023-06-04T11:53:36;27.20;99.90
11894;DHT22;6006;49.696;8.662;2023-06-04T11:56:04;27.60;99.90
11894;DHT22;6006;49.696;8.662;2023-06-04T11:58:32;27.30;99.90
11894;DHT22;6006;49.696;8.662;2023-06-04T12:01:00;27.70;99.90
11894;DHT22;6006;49.696;8.662;2023-06-04T12:03:34;28.20;99.90
11894;DHT22;6006;49.696;8.662;2023-06-04T12:06:17;28.90;99.90
11894;DHT22;6006;49.696;8.662;2023-06-04T12:08:47;29.60;99.90
11894;DHT22;6006;49.696;8.662;2023-06-04T12:11:25;30.00;99.90
11894;DHT22;6006;49.696;8.662;2023-06-04T12:13:53;28.90;99.90
11894;DHT22;6006;49.696;8.662;2023-06-04T12:16:22;29.10;99.90
11894;DHT22;6006;49.696;8.662;2023-06-04T12:18:49;29.50;99.90
11894;DHT22;6006;49.696;8.662;2023-06-04T12:21:18;29.70;99.90
11894;DHT22;6006;49.696;8.662;2023-06-04T12:23:45;29.90;99.90
11894;DHT22;6006;49.696;8.662;2023-06-04T12:26:20;30.10;99.90
11894;DHT22;6006;49.696;8.662;2023-06-04T12:29:08;29.40;99.90
11894;DHT22;6006;49.696;8.662;2023-06-04T12:31:38;29.40;99.90
11894;DHT22;6006;49.696;8.662;2023-06-04T12:34:05;28.80;99.90
11894;DHT22;6006;49.696;8.662;2023-06-04T12:36:32;28.50;99.90
11894;DHT22;6006;49.696;8.662;2023-06-04T12:39:01;28.80;99.90
11894;DHT22;6006;49.696;8.662;2023-06-04T12:41:29;29.30;99.90
11894;DHT22;6006;49.696;8.662;2023-06-04T12:43:57;29.90;99.90
11894;DHT22;6006;49.696;8.662;2023-06-04T12:46:24;29.80;99.90
11894;DHT22;6006;49.696;8.662;2023-06-04T12:48:53;29.40;99.90
11894;DHT22;6006;49.696;8.662;2023-06-04T12:51:20;28.90;99.90
11894;DHT22;6006;49.696;8.662;2023-06-04T12:53:48;29.50;99.90
11894;DHT22;6006;49.696;8.662;2023-06-04T12:56:15;29.80;99.90
11894;DHT22;6006;49.696;8.662;2023-06-04T12:58:42;29.20;99.90
11894;DHT22;6006;49.696;8.662;2023-06-04T13:01:08;29.10;99.90
11894;DHT22;6006;49.696;8.662;2023-06-04T13:03:37;28.80;99.90
11894;DHT22;6006;49.696;8.662;2023-06-04T13:06:05;28.80;99.90
11894;DHT22;6006;49.696;8.662;2023-06-04T13:08:32;28.40;99.90
11894;DHT22;6006;49.696;8.662;2023-06-04T13:11:00;28.20;99.90
11894;DHT22;6006;49.696;8.662;2023-06-04T13:13:27;28.70;99.90
11894;DHT22;6006;49.696;8.662;2023-06-04T13:15:55;28.80;99.90
11894;DHT22;6006;49.696;8.662;2023-06-04T13:18:22;28.60;99.90
11894;DHT22;6006;49.696;8.662;2023-06-04T13:20:49;28.90;99.90
11894;DHT22;6006;49.696;8.662;2023-06-04T13:23:18;29.40;99.90
11894;DHT22;6006;49.696;8.662;2023-06-04T13:25:45;30.00;99.90
11894;DHT22;6006;49.696;8.662;2023-06-04T13:28:11;29.50;99.90
11894;DHT22;6006;49.696;8.662;2023-06-04T13:30:38;28.60;99.90
11894;DHT22;6006;49.696;8.662;2023-06-04T13:33:06;27.70;99.90
11894;DHT22;6006;49.696;8.662;2023-06-04T13:35:33;27.90;99.90
11894;DHT22;6006;49.696;8.662;2023-06-04T13:38:03;28.20;99.90
11894;DHT22;6006;49.696;8.662;2023-06-04T13:40:31;28.40;99.90
11894;DHT22;6006;49.696;8.662;2023-06-04T13:42:58;28.60;99.90
11894;DHT22;6006;49.696;8.662;2023-06-04T13:45:25;28.40;99.90
11894;DHT22;6006;49.696;8.662;2023-06-04T13:47:52;28.60;99.90
11894;DHT22;6006;49.696;8.662;2023-06-04T13:50:19;29.10;99.90
11894;DHT22;6006;49.696;8.662;2023-06-04T13:52:46;29.40;99.90
11894;DHT22;6006;49.696;8.662;2023-06-04T13:55:13;29.70;99.90
11894;DHT22;6006;49.696;8.662;2023-06-04T13:57:41;29.00;99.90
11894;DHT22;6006;49.696;8.662;2023-06-04T14:00:09;28.60;99.90
11894;DHT22;6006;49.696;8.662;2023-06-04T14:02:39;28.70;99.90
11894;DHT22;6006;49.696;8.662;2023-06-04T14:05:06;28.70;99.90
11894;DHT22;6006;49.696;8.662;2023-06-04T14:07:33;28.80;99.90
11894;DHT22;6006;49.696;8.662;2023-06-04T14:10:00;28.70;99.90
11894;DHT22;6006;49.696;8.662;2023-06-04T14:12:27;29.60;99.90
11894;DHT22;6006;49.696;8.662;2023-06-04T14:14:55;29.40;99.90
11894;DHT22;6006;49.696;8.662;2023-06-04T14:17:22;29.40;99.90
11894;DHT22;6006;49.696;8.662;2023-06-04T14:19:49;29.10;99.90
11894;DHT22;6006;49.696;8.662;2023-06-04T14:22:16;29.30;99.90
11894;DHT22;6006;49.696;8.662;2023-06-04T14:24:43;29.90;99.90
11894;DHT22;6006;49.696;8.662;2023-06-04T14:27:10;30.20;99.90
11894;DHT22;6006;49.696;8.662;2023-06-04T14:29:37;30.40;99.90
11894;DHT22;6006;49.696;8.662;2023-06-04T14:32:05;29.00;99.90
11894;DHT22;6006;49.696;8.662;2023-06-04T14:34:32;29.30;99.90
11894;DHT22;6006;49.696;8.662;2023-06-04T14:36:59;29.40;99.90
11894;DHT22;6006;49.696;8.662;2023-06-04T14:39:26;29.50;99.90
11894;DHT22;6006;49.696;8.662;2023-06-04T14:41:53;29.70;99.90
11894;DHT22;6006;49.696;8.662;2023-06-04T14:44:21;29.60;99.90
11894;DHT22;6006;49.696;8.662;2023-06-04T14:46:49;29.20;99.90
11894;DHT22;6006;49.696;8.662;2023-06-04T14:49:19;29.40;99.90
11894;DHT22;6006;49.696;8.662;2023-06-04T14:51:46;29.70;99.90
11894;DHT22;6006;49.696;8.662;2023-06-04T14:54:13;29.10;99.90
11894;DHT22;6006;49.696;8.662;2023-06-04T14:56:40;29.10;99.90
11894;DHT22;6006;49.696;8.662;2023-06-04T14:59:06;28.90;99.90
11894;DHT22;6006;49.696;8.662;2023-06-04T15:01:37;28.70;99.90
11894;DHT22;6006;49.696;8.662;2023-06-04T15:04:04;28.70;99.90
11894;DHT22;6006;49.696;8.662;2023-06-04T15:06:32;28.30;99.90
11894;DHT22;6006;49.696;8.662;2023-06-04T15:09:00;28.20;99.90
11894;DHT22;6006;49.696;8.662;2023-06-04T15:11:27;28.30;99.90
11894;DHT22;6006;49.696;8.662;2023-06-04T15:13:53;28.20;99.90
11894;DHT22;6006;49.696;8.662;2023-06-04T15:16:20;28.30;99.90
11894;DHT22;6006;49.696;8.662;2023-06-04T15:18:48;28.00;99.90
11894;DHT22;6006;49.696;8.662;2023-06-04T15:21:15;28.20;99.90
11894;DHT22;6006;49.696;8.662;2023-06-04T15:23:43;28.20;99.90
11894;DHT22;6006;49.696;8.662;2023-06-04T15:26:14;28.30;99.90
11894;DHT22;6006;49.696;8.662;2023-06-04T15:28:41;29.00;99.90
11894;DHT22;6006;49.696;8.662;2023-06-04T15:31:08;28.40;99.90
11894;DHT22;6006;49.696;8.662;2023-06-04T15:33:35;28.30;99.90
11894;DHT22;6006;49.696;8.662;2023-06-04T15:36:02;28.20;99.90
11894;DHT22;6006;49.696;8.662;2023-06-04T15:38:29;28.00;99.90
11894;DHT22;6006;49.696;8.662;2023-06-04T15:40:57;28.40;99.90
11894;DHT22;6006;49.696;8.662;2023-06-04T15:43:24;28.50;99.90
11894;DHT22;6006;49.696;8.662;2023-06-04T15:45:51;28.20;99.90
11894;DHT22;6006;49.696;8.662;2023-06-04T15:48:18;27.80;99.90
11894;DHT22;6006;49.696;8.662;2023-06-04T15:50:45;27.80;99.90